Time;durP1;ratioP1;P1;durP2;ratioP2;P2;SDS_P1;SDS_P2;PMS_P1;PMS_P2;Temp;Humidity;BMP_temperature;BMP_pressure;BME280_temperature;BME280_humidity;BME280_pressure;Samples;Min_cycle;Max_cycle;Signal;HPM_P1;HPM_P2
2022/08/22 00:01:39;;;;;;;1.83;1.40;;;23.50;75.40;;;;;;6157265;28;81255;-64
2022/08/22 00:04:40;;;;;;;2.88;1.75;;;23.50;75.00;;;;;;6151421;28;80220;-64
2022/08/22 00:07:40;;;;;;;2.13;1.60;;;23.40;75.40;;;;;;6148025;28;80532;-63
2022/08/22 00:10:42;;;;;;;1.40;1.30;;;23.40;76.00;;;;;;6164033;28;80537;-64
2022/08/22 00:13:42;;;;;;;5.05;1.92;;;23.30;76.10;;;;;;6165864;28;86223;-64
2022/08/22 00:16:43;;;;;;;2.25;1.83;;;23.30;75.80;;;;;;6158763;28;80628;-65
2022/08/22 00:19:43;;;;;;;3.78;2.25;;;22.90;77.60;;;;;;6156490;28;88473;-66
2022/08/22 00:22:46;;;;;;;4.45;2.20;;;22.90;78.20;;;;;;6121623;28;83645;-65
2022/08/22 00:25:47;;;;;;;3.97;2.00;;;22.90;78.20;;;;;;6144803;28;86340;-63
2022/08/22 00:28:48;;;;;;;5.90;1.85;;;23.00;78.00;;;;;;6149957;28;80431;-63
2022/08/22 00:31:48;;;;;;;2.53;1.75;;;23.20;77.00;;;;;;6151358;28;80430;-64
2022/08/22 00:34:49;;;;;;;2.47;1.90;;;23.20;77.20;;;;;;6150364;28;85999;-63
2022/08/22 00:37:49;;;;;;;2.08;1.50;;;23.30;76.50;;;;;;6158726;28;80423;-65
2022/08/22 00:40:52;;;;;;;9.88;1.77;;;23.40;76.30;;;;;;6161464;28;80358;-63
2022/08/22 00:43:52;;;;;;;2.97;1.83;;;23.60;75.50;;;;;;6163936;28;83895;-64
2022/08/22 00:46:53;;;;;;;4.28;2.15;;;23.70;75.10;;;;;;6151899;28;84892;-65
2022/08/22 00:49:53;;;;;;;2.85;1.60;;;23.70;74.90;;;;;;6157941;28;80600;-64
2022/08/22 00:52:54;;;;;;;2.03;1.60;;;23.70;74.90;;;;;;6149247;28;80320;-65
2022/08/22 00:55:55;;;;;;;3.38;1.55;;;23.90;74.50;;;;;;6149358;28;80758;-58
2022/08/22 00:58:56;;;;;;;5.57;1.95;;;23.90;74.10;;;;;;6149838;28;80383;-56
2022/08/22 01:01:56;;;;;;;4.68;1.85;;;24.00;74.00;;;;;;6148723;28;81191;-56
2022/08/22 01:04:57;;;;;;;6.57;1.83;;;24.00;73.70;;;;;;6149860;28;87656;-57
2022/08/22 01:07:57;;;;;;;5.78;1.88;;;24.10;73.40;;;;;;6146826;28;80914;-57
2022/08/22 01:10:58;;;;;;;5.32;2.13;;;24.30;73.00;;;;;;6151061;28;80373;-56
2022/08/22 01:13:58;;;;;;;3.95;2.22;;;24.30;72.80;;;;;;6148373;28;80775;-57
2022/08/22 01:16:59;;;;;;;7.55;2.47;;;24.30;72.90;;;;;;6148050;28;81550;-58
2022/08/22 01:20:00;;;;;;;5.25;2.53;;;24.30;72.60;;;;;;6149316;28;81179;-56
2022/08/22 01:23:00;;;;;;;3.20;2.20;;;24.30;72.70;;;;;;6162236;28;81214;-57
2022/08/22 01:26:00;;;;;;;4.55;2.72;;;24.30;72.70;;;;;;6145834;28;80457;-58
2022/08/22 01:29:01;;;;;;;4.20;2.65;;;24.30;72.70;;;;;;6152122;28;81556;-57
2022/08/22 01:32:01;;;;;;;6.57;2.40;;;24.20;73.30;;;;;;6160416;28;80746;-57
2022/08/22 01:35:02;;;;;;;9.23;3.67;;;24.30;73.10;;;;;;6157134;28;80576;-56
2022/08/22 01:38:02;;;;;;;4.38;2.58;;;24.40;72.70;;;;;;6148579;28;80182;-57
2022/08/22 01:41:03;;;;;;;15.27;3.05;;;24.50;72.60;;;;;;6154197;28;80822;-56
2022/08/22 01:44:03;;;;;;;5.90;2.22;;;24.50;72.50;;;;;;6165398;28;80936;-57
2022/08/22 01:47:04;;;;;;;8.13;3.28;;;24.40;72.20;;;;;;6155141;28;81122;-57
2022/08/22 01:50:04;;;;;;;5.72;2.78;;;24.30;72.70;;;;;;6153117;28;80723;-56
2022/08/22 01:53:05;;;;;;;7.22;2.78;;;24.20;73.00;;;;;;6126599;28;81152;-57
2022/08/22 01:56:05;;;;;;;6.00;2.67;;;24.20;73.40;;;;;;6162616;28;80082;-57
2022/08/22 01:59:05;;;;;;;9.65;2.88;;;24.30;73.20;;;;;;6148620;28;80483;-54
2022/08/22 02:02:06;;;;;;;12.00;2.95;;;24.10;73.60;;;;;;6167940;28;80745;-57
2022/08/22 02:05:06;;;;;;;8.23;3.20;;;23.80;75.30;;;;;;6153137;28;83957;-58
2022/08/22 02:08:07;;;;;;;7.18;3.20;;;23.80;75.00;;;;;;6159955;28;82597;-56
2022/08/22 02:11:07;;;;;;;6.68;3.03;;;23.90;74.70;;;;;;6168023;28;80289;-57
2022/08/22 02:14:08;;;;;;;5.47;2.58;;;24.00;74.60;;;;;;6153267;28;80737;-55
2022/08/22 02:17:08;;;;;;;5.88;3.10;;;23.90;74.60;;;;;;6166615;28;80422;-54
2022/08/22 02:20:09;;;;;;;5.53;2.97;;;24.10;74.10;;;;;;6165250;28;80650;-57
2022/08/22 02:23:09;;;;;;;5.90;2.92;;;24.10;74.00;;;;;;6173840;28;80846;-56
2022/08/22 02:26:10;;;;;;;9.60;3.58;;;24.00;74.20;;;;;;6162031;28;84385;-59
2022/08/22 02:29:10;;;;;;;9.25;3.45;;;24.00;74.80;;;;;;6172851;28;80905;-58
2022/08/22 02:32:11;;;;;;;10.02;3.42;;;24.10;74.50;;;;;;6153370;28;86236;-58
2022/08/22 02:35:11;;;;;;;8.95;3.97;;;24.10;74.50;;;;;;6151566;28;80675;-58
2022/08/22 02:38:12;;;;;;;11.30;5.47;;;24.10;74.40;;;;;;6142082;28;82406;-58
2022/08/22 02:41:12;;;;;;;9.18;4.32;;;24.10;74.40;;;;;;6153321;28;80238;-55
2022/08/22 02:44:13;;;;;;;10.43;5.00;;;23.90;75.90;;;;;;6142902;28;89976;-57
2022/08/22 02:47:13;;;;;;;7.75;4.22;;;23.80;75.60;;;;;;6150997;28;80830;-56
2022/08/22 02:50:14;;;;;;;9.32;6.00;;;23.80;75.70;;;;;;6149636;28;80607;-56
2022/08/22 02:53:14;;;;;;;13.07;5.35;;;23.30;77.60;;;;;;6139354;28;85522;-55
2022/08/22 02:56:15;;;;;;;10.00;4.25;;;23.10;79.20;;;;;;6154556;28;81264;-55
2022/08/22 02:59:15;;;;;;;12.20;4.85;;;23.40;78.50;;;;;;6155388;28;80926;-56
2022/08/22 03:02:16;;;;;;;10.15;4.75;;;23.50;78.00;;;;;;6153312;28;84094;-55
2022/08/22 03:05:16;;;;;;;10.02;5.20;;;23.60;77.30;;;;;;6151833;28;82398;-58
2022/08/22 03:08:17;;;;;;;5.53;3.55;;;23.50;77.70;;;;;;6159893;28;81223;-58
2022/08/22 03:11:17;;;;;;;14.00;4.68;;;23.60;77.10;;;;;;6153298;28;79928;-58
2022/08/22 03:14:18;;;;;;;6.38;4.05;;;23.70;76.80;;;;;;6151263;28;80510;-57
2022/08/22 03:17:18;;;;;;;9.98;3.65;;;23.60;77.00;;;;;;6150302;28;80230;-58
2022/08/22 03:20:19;;;;;;;6.55;3.55;;;23.70;76.70;;;;;;6150573;28;81546;-58
2022/08/22 03:23:19;;;;;;;7.97;3.92;;;23.80;76.20;;;;;;6140902;28;80382;-58
2022/08/22 03:26:20;;;;;;;6.40;3.97;;;23.90;75.90;;;;;;6152748;28;81157;-61
2022/08/22 03:29:20;;;;;;;6.40;3.95;;;23.90;76.00;;;;;;6148972;28;82821;-60
2022/08/22 03:32:21;;;;;;;11.68;4.40;;;23.70;76.50;;;;;;6152002;28;83666;-58
2022/08/22 03:35:21;;;;;;;8.45;3.92;;;23.70;76.90;;;;;;6155054;28;81302;-59
2022/08/22 03:38:22;;;;;;;10.93;5.05;;;23.80;76.70;;;;;;6134954;28;85444;-59
2022/08/22 03:41:22;;;;;;;8.77;4.50;;;23.60;77.50;;;;;;6152001;28;81027;-59
2022/08/22 03:44:23;;;;;;;9.93;4.40;;;23.50;77.80;;;;;;6148585;28;83313;-59
2022/08/22 03:47:23;;;;;;;9.48;3.83;;;23.50;78.10;;;;;;6165269;28;82349;-58
2022/08/22 03:50:24;;;;;;;10.05;4.10;;;23.50;78.00;;;;;;6172079;28;81517;-60
2022/08/22 03:53:24;;;;;;;10.07;4.30;;;23.60;77.70;;;;;;6168014;28;83627;-60
2022/08/22 03:56:25;;;;;;;13.00;5.45;;;23.70;77.70;;;;;;6166653;28;80804;-60
2022/08/22 03:59:25;;;;;;;11.65;4.75;;;23.70;77.30;;;;;;6167510;28;80626;-59
2022/08/22 04:02:26;;;;;;;11.13;4.50;;;23.70;77.30;;;;;;6155128;28;80412;-59
2022/08/22 04:05:26;;;;;;;15.82;4.90;;;23.80;76.90;;;;;;6149305;28;80678;-60
2022/08/22 04:08:27;;;;;;;9.18;4.38;;;23.90;76.90;;;;;;6166628;28;80496;-60
2022/08/22 04:11:29;;;;;;;7.32;3.80;;;23.90;76.70;;;;;;6164718;28;81101;-59
2022/08/22 04:14:30;;;;;;;7.88;3.83;;;24.00;76.00;;;;;;6175126;28;80822;-58
2022/08/22 04:17:31;;;;;;;11.63;3.58;;;24.10;76.00;;;;;;6147741;28;86449;-58
2022/08/22 04:20:31;;;;;;;8.65;4.28;;;24.10;75.80;;;;;;6146672;28;80806;-58
2022/08/22 04:23:32;;;;;;;9.23;3.25;;;24.20;75.50;;;;;;6139416;28;80698;-58
2022/08/22 04:26:32;;;;;;;10.50;5.40;;;24.30;75.20;;;;;;6151397;28;80738;-59
2022/08/22 04:29:33;;;;;;;9.00;5.15;;;24.30;74.90;;;;;;6150709;28;80977;-64
2022/08/22 04:32:35;;;;;;;8.10;4.35;;;24.40;74.90;;;;;;6139966;28;80821;-65
2022/08/22 04:35:35;;;;;;;9.27;4.40;;;24.40;74.60;;;;;;6149991;28;81829;-64
2022/08/22 04:38:36;;;;;;;15.52;5.65;;;24.50;74.50;;;;;;6144988;28;82373;-64
2022/08/22 04:41:36;;;;;;;13.80;4.50;;;24.50;74.30;;;;;;6133671;28;82685;-63
2022/08/22 04:44:37;;;;;;;10.70;4.95;;;24.40;74.60;;;;;;6132015;28;80977;-63
2022/08/22 04:47:37;;;;;;;9.75;4.30;;;24.40;75.00;;;;;;6140513;28;80372;-66
2022/08/22 04:50:38;;;;;;;6.57;3.53;;;24.50;74.80;;;;;;6148309;28;80858;-60
2022/08/22 04:53:39;;;;;;;7.30;3.47;;;24.60;74.60;;;;;;6147551;28;80914;-61
2022/08/22 04:56:39;;;;;;;5.72;3.03;;;24.70;74.20;;;;;;6137007;28;81106;-59
2022/08/22 04:59:40;;;;;;;9.02;3.20;;;24.80;74.20;;;;;;6139407;28;80337;-59
2022/08/22 05:02:40;;;;;;;7.45;3.85;;;24.80;74.10;;;;;;6132477;28;84481;-59
2022/08/22 05:05:41;;;;;;;9.32;3.58;;;24.90;73.80;;;;;;6136988;28;80948;-58
2022/08/22 05:08:41;;;;;;;10.65;4.00;;;24.90;73.50;;;;;;6147743;28;81068;-59
2022/08/22 05:11:42;;;;;;;11.70;3.60;;;25.00;73.80;;;;;;6145039;28;80913;-59
2022/08/22 05:14:42;;;;;;;11.40;3.70;;;25.00;74.30;;;;;;6119690;28;81238;-60
2022/08/22 05:17:43;;;;;;;14.68;5.32;;;25.10;73.70;;;;;;6137050;28;80744;-59
2022/08/22 05:20:44;;;;;;;12.07;4.22;;;25.10;73.80;;;;;;6141913;28;80397;-62
2022/08/22 05:23:44;;;;;;;14.60;4.57;;;25.10;73.60;;;;;;6146716;28;80742;-63
2022/08/22 05:26:45;;;;;;;15.65;4.25;;;25.10;73.70;;;;;;6137863;28;80359;-59
2022/08/22 05:29:46;;;;;;;9.15;3.78;;;25.10;73.50;;;;;;6138954;28;80427;-59
2022/08/22 05:32:46;;;;;;;14.18;4.15;;;25.20;73.80;;;;;;6144852;28;81475;-60
2022/08/22 05:35:47;;;;;;;12.00;4.75;;;25.20;74.40;;;;;;6142348;28;81452;-60
2022/08/22 05:38:47;;;;;;;13.75;4.68;;;25.20;73.50;;;;;;6135989;28;80710;-61
2022/08/22 05:41:47;;;;;;;14.52;4.63;;;25.20;73.60;;;;;;6134886;28;80135;-58
2022/08/22 05:44:48;;;;;;;20.10;4.60;;;25.30;73.60;;;;;;6135099;28;81185;-59
2022/08/22 05:47:48;;;;;;;11.95;4.68;;;25.30;73.60;;;;;;6139743;28;80711;-58
2022/08/22 05:50:49;;;;;;;11.40;5.28;;;25.30;73.70;;;;;;6142191;28;80996;-59
2022/08/22 05:53:49;;;;;;;17.10;4.72;;;25.30;73.60;;;;;;6138674;28;81673;-62
2022/08/22 05:56:50;;;;;;;9.40;4.30;;;25.30;73.60;;;;;;6139124;28;80964;-58
2022/08/22 05:59:50;;;;;;;11.88;4.53;;;25.40;73.90;;;;;;6138712;28;80549;-59
2022/08/22 06:02:51;;;;;;;12.15;4.90;;;25.40;74.10;;;;;;6141487;28;80978;-58
2022/08/22 06:05:51;;;;;;;8.93;4.75;;;25.40;74.20;;;;;;6138221;28;80800;-60
2022/08/22 06:08:52;;;;;;;14.18;5.38;;;25.40;74.10;;;;;;6139353;28;83092;-52
2022/08/22 06:11:52;;;;;;;11.07;4.82;;;25.40;74.00;;;;;;6136819;28;83030;-59
2022/08/22 06:14:53;;;;;;;9.15;4.88;;;25.40;74.10;;;;;;6140986;28;80954;-59
2022/08/22 06:17:53;;;;;;;13.52;5.80;;;25.40;74.20;;;;;;6122536;28;84984;-60
2022/08/22 06:20:54;;;;;;;16.38;5.35;;;25.50;74.00;;;;;;6120470;28;80804;-60
2022/08/22 06:23:55;;;;;;;11.70;4.82;;;25.50;74.10;;;;;;6128744;28;80595;-60
2022/08/22 06:26:55;;;;;;;12.05;4.75;;;25.50;74.20;;;;;;6133944;28;80664;-61
2022/08/22 06:29:56;;;;;;;17.73;5.50;;;25.50;74.10;;;;;;6128493;28;80833;-61
2022/08/22 06:32:56;;;;;;;9.27;4.63;;;25.50;74.30;;;;;;6126809;28;80907;-58
2022/08/22 06:39:17;;;;;;;13.20;5.05;;;25.50;73.90;;;;;;6128689;28;84110;-60
2022/08/22 06:42:17;;;;;;;7.97;5.07;;;25.60;74.10;;;;;;6154309;28;81497;-60
2022/08/22 06:45:18;;;;;;;10.38;5.20;;;25.60;74.40;;;;;;6031919;28;83498;-61
2022/08/22 06:48:19;;;;;;;14.93;6.53;;;25.50;73.90;;;;;;6158949;28;82477;-60
2022/08/22 06:51:20;;;;;;;11.18;5.53;;;25.50;73.90;;;;;;6130678;28;82152;-60
2022/08/22 06:54:20;;;;;;;10.90;5.97;;;25.50;74.10;;;;;;6150491;28;80771;-60
2022/08/22 06:57:21;;;;;;;14.90;6.88;;;25.30;74.20;;;;;;6165780;28;82283;-60
2022/08/22 07:00:21;;;;;;;11.65;6.28;;;25.20;74.70;;;;;;6164761;28;80356;-60
2022/08/22 07:03:22;;;;;;;11.10;5.68;;;25.10;74.90;;;;;;6141164;28;81594;-60
2022/08/22 07:06:22;;;;;;;12.75;6.30;;;25.10;75.20;;;;;;6141263;28;80897;-60
2022/08/22 07:09:23;;;;;;;14.88;6.18;;;25.20;74.80;;;;;;6160422;28;83152;-60
2022/08/22 07:12:25;;;;;;;11.35;6.22;;;25.10;75.30;;;;;;6125076;28;83059;-58
2022/08/22 07:15:26;;;;;;;15.98;7.80;;;25.00;75.70;;;;;;6136859;28;83241;-58
2022/08/22 07:18:27;;;;;;;13.15;7.13;;;24.80;76.20;;;;;;6149228;28;83373;-59
2022/08/22 07:21:27;;;;;;;14.50;7.30;;;24.70;76.70;;;;;;6174512;28;80412;-59
2022/08/22 07:24:28;;;;;;;14.13;7.10;;;24.70;77.10;;;;;;6169531;28;80992;-59
2022/08/22 07:27:29;;;;;;;14.90;7.60;;;24.60;77.20;;;;;;6176322;28;83032;-61
2022/08/22 07:30:30;;;;;;;11.48;6.53;;;24.40;78.70;;;;;;6168583;28;80942;-58
2022/08/22 07:33:30;;;;;;;14.70;7.22;;;24.30;79.30;;;;;;6168342;28;80535;-59
2022/08/22 07:36:31;;;;;;;14.27;6.70;;;24.30;79.40;;;;;;6146545;28;80625;-59
2022/08/22 07:39:31;;;;;;;18.88;6.22;;;24.50;78.70;;;;;;6145959;28;81741;-60
2022/08/22 07:42:32;;;;;;;15.43;7.90;;;24.70;78.00;;;;;;6044987;28;84760;-58
2022/08/22 07:45:33;;;;;;;13.48;8.23;;;24.80;77.60;;;;;;6121933;28;83912;-59
2022/08/22 07:48:33;;;;;;;12.45;8.07;;;24.80;77.60;;;;;;6117397;28;87268;-60
2022/08/22 07:51:34;;;;;;;12.20;7.43;;;24.90;77.00;;;;;;6142353;28;82842;-60
2022/08/22 07:54:35;;;;;;;12.77;7.50;;;24.90;77.00;;;;;;6163433;28;81666;-62
2022/08/22 07:57:35;;;;;;;16.63;7.28;;;25.00;76.70;;;;;;6168461;28;80309;-61
2022/08/22 08:00:36;;;;;;;11.73;6.70;;;25.00;76.60;;;;;;6118737;28;84094;-59
2022/08/22 08:03:36;;;;;;;16.75;6.93;;;25.10;76.50;;;;;;6148210;28;80751;-60
2022/08/22 08:06:37;;;;;;;13.45;6.60;;;25.20;76.30;;;;;;6142486;28;83890;-59
2022/08/22 08:09:37;;;;;;;16.63;6.55;;;25.30;76.00;;;;;;6155276;28;80436;-59
2022/08/22 08:12:38;;;;;;;18.42;8.20;;;25.30;75.80;;;;;;6151314;28;80770;-59
2022/08/22 08:15:38;;;;;;;24.83;9.80;;;25.30;75.50;;;;;;6162262;28;80874;-59
2022/08/22 08:18:39;;;;;;;20.92;9.52;;;25.40;75.90;;;;;;6171284;28;80595;-59
2022/08/22 08:21:40;;;;;;;19.17;9.70;;;25.40;76.00;;;;;;6166646;28;86040;-59
2022/08/22 08:24:40;;;;;;;20.17;10.00;;;25.50;76.30;;;;;;6162309;28;81710;-59
2022/08/22 08:31:00;;;;;;;20.02;11.13;;;25.50;77.30;;;;;;6162260;28;83120;-59
2022/08/22 08:34:02;;;;;;;20.77;11.10;;;25.50;76.60;;;;;;6164519;28;83915;-59
2022/08/22 08:37:02;;;;;;;22.83;11.57;;;25.50;76.90;;;;;;6164113;28;83024;-60
2022/08/22 08:40:03;;;;;;;32.30;11.02;;;25.50;76.60;;;;;;6141042;28;83393;-60
2022/08/22 08:46:24;;;;;;;20.33;11.70;;;25.60;77.40;;;;;;6133622;28;83606;-61
2022/08/22 08:49:24;;;;;;;19.05;10.52;;;25.60;77.80;;;;;;6126640;28;82980;-60
2022/08/22 08:52:25;;;;;;;21.55;10.70;;;25.60;77.10;;;;;;6136187;28;83069;-58
2022/08/22 08:55:26;;;;;;;25.42;12.35;;;25.60;77.40;;;;;;6114525;28;83374;-61
2022/08/22 08:58:27;;;;;;;21.48;11.32;;;25.30;77.90;;;;;;6112468;28;83721;-60
2022/08/22 09:01:27;;;;;;;26.08;12.25;;;25.20;78.00;;;;;;6127270;28;83228;-61
2022/08/22 09:04:28;;;;;;;28.48;12.13;;;25.20;78.30;;;;;;6110020;28;87880;-60
2022/08/22 09:07:30;;;;;;;18.45;10.88;;;25.10;78.90;;;;;;6111972;28;83294;-61
2022/08/22 09:10:30;;;;;;;27.17;12.07;;;25.20;78.80;;;;;;6098617;28;90044;-61
2022/08/22 09:13:31;;;;;;;21.73;12.95;;;24.90;80.00;;;;;;6127012;28;86648;-59
2022/08/22 09:16:32;;;;;;;24.13;12.32;;;24.40;83.10;;;;;;6126584;28;84347;-58
2022/08/22 09:19:32;;;;;;;37.40;15.93;;;24.20;84.60;;;;;;6134797;28;84997;-63
2022/08/22 09:22:33;;;;;;;32.25;15.77;;;23.80;86.80;;;;;;6145403;28;83160;-63
2022/08/22 09:25:33;;;;;;;27.00;14.75;;;23.60;88.50;;;;;;6144362;28;83546;-60
2022/08/22 09:28:33;;;;;;;42.08;16.65;;;23.50;89.70;;;;;;6139649;28;90563;-59
2022/08/22 09:31:35;;;;;;;46.53;17.80;;;23.60;89.20;;;;;;6142722;28;83638;-59
2022/08/22 09:34:36;;;;;;;35.03;17.02;;;23.60;89.70;;;;;;6150319;28;85016;-59
2022/08/22 09:37:37;;;;;;;41.15;15.63;;;23.50;90.30;;;;;;6152822;28;91579;-60
2022/08/22 09:40:37;;;;;;;35.10;16.20;;;23.60;90.30;;;;;;6177230;28;83425;-59
2022/08/22 09:43:38;;;;;;;28.23;15.85;;;23.80;89.60;;;;;;6165742;28;91961;-59
2022/08/22 09:46:38;;;;;;;31.35;15.00;;;23.80;89.80;;;;;;6168858;28;82998;-58
2022/08/22 09:49:39;;;;;;;29.75;14.23;;;24.00;89.10;;;;;;6169393;28;83877;-59
2022/08/22 09:52:39;;;;;;;26.38;12.93;;;24.20;87.60;;;;;;6167726;28;89305;-59
2022/08/22 09:55:40;;;;;;;22.77;13.98;;;24.40;86.60;;;;;;6170566;28;85491;-60
2022/08/22 09:58:40;;;;;;;23.30;12.15;;;24.50;86.00;;;;;;6135695;28;86410;-59
2022/08/22 10:01:40;;;;;;;24.33;12.70;;;24.70;85.50;;;;;;6156494;28;83367;-59
2022/08/22 10:04:41;;;;;;;34.95;12.98;;;24.80;84.90;;;;;;6154847;28;83462;-59
2022/08/22 10:07:42;;;;;;;25.38;12.93;;;24.90;84.20;;;;;;6162150;28;83213;-59
2022/08/22 10:10:44;;;;;;;31.90;12.27;;;25.10;83.90;;;;;;6151712;28;84506;-58
2022/08/22 10:13:45;;;;;;;23.00;12.52;;;25.10;83.20;;;;;;6163554;28;82933;-59
2022/08/22 10:16:45;;;;;;;22.73;12.18;;;25.20;83.50;;;;;;6147608;28;85891;-59
2022/08/22 10:19:46;;;;;;;25.88;12.63;;;25.30;83.20;;;;;;6145871;28;83195;-59
2022/08/22 10:22:46;;;;;;;22.02;11.85;;;25.30;82.90;;;;;;6162759;28;83475;-59
2022/08/22 10:25:47;;;;;;;24.98;12.32;;;25.30;83.20;;;;;;6166041;28;84084;-60
2022/08/22 10:28:47;;;;;;;25.00;11.65;;;25.40;82.60;;;;;;6156738;28;86194;-60
2022/08/22 10:31:47;;;;;;;21.73;11.07;;;25.40;82.80;;;;;;6161303;28;83820;-60
2022/08/22 10:34:48;;;;;;;21.85;11.68;;;25.50;82.60;;;;;;6155046;28;83479;-60
2022/08/22 10:37:48;;;;;;;21.27;11.73;;;25.50;82.40;;;;;;6154339;28;84446;-59
2022/08/22 10:40:49;;;;;;;15.20;9.15;;;25.50;82.60;;;;;;6156875;28;84166;-60
2022/08/22 10:43:49;;;;;;;19.05;10.75;;;25.60;82.70;;;;;;6165870;28;83202;-62
2022/08/22 10:46:50;;;;;;;18.35;9.88;;;25.60;82.40;;;;;;6160656;28;83172;-59
2022/08/22 10:49:51;;;;;;;24.92;13.05;;;25.70;82.10;;;;;;6176769;28;82991;-59
2022/08/22 10:53:28;;;;;;;27.73;15.48;;;25.80;82.00;;;;;;6163753;28;84184;-60
2022/08/22 10:56:12;;;;;;;30.08;17.27;;;25.80;82.30;;;;;;6159757;28;83901;-58
2022/08/22 10:59:12;;;;;;;30.92;17.15;;;25.80;82.40;;;;;;6167515;28;83244;-59
2022/08/22 11:02:13;;;;;;;30.80;16.50;;;25.80;83.10;;;;;;6160446;28;84049;-59
2022/08/22 11:05:14;;;;;;;27.25;15.45;;;25.90;84.30;;;;;;6172192;28;86554;-59
2022/08/22 11:08:14;;;;;;;30.67;15.77;;;25.90;84.50;;;;;;6162509;28;83221;-59
2022/08/22 11:11:15;;;;;;;24.45;14.93;;;26.00;84.70;;;;;;6167743;28;82869;-59
2022/08/22 11:36:08;;;;;;;30.80;14.63;;;26.40;85.30;;;;;;6168811;28;84620;-58
2022/08/22 11:39:08;;;;;;;30.85;16.63;;;26.40;83.90;;;;;;6165573;28;83754;-63
2022/08/22 11:42:09;;;;;;;28.75;16.15;;;26.50;84.60;;;;;;6169145;28;84870;-63
2022/08/22 11:45:10;;;;;;;25.60;16.05;;;26.50;85.40;;;;;;6166605;28;87320;-63
2022/08/22 11:48:10;;;;;;;24.38;15.18;;;26.50;85.00;;;;;;6149014;28;84188;-62
2022/08/22 11:51:11;;;;;;;23.88;15.93;;;26.60;84.80;;;;;;6158936;28;86734;-63
2022/08/22 11:54:11;;;;;;;24.45;15.65;;;26.60;84.00;;;;;;6164355;28;83907;-64
2022/08/22 11:57:12;;;;;;;28.70;14.93;;;26.70;83.00;;;;;;6168365;28;86132;-65
2022/08/22 12:00:13;;;;;;;28.17;14.93;;;26.70;82.00;;;;;;6166496;28;84520;-66
2022/08/22 12:03:14;;;;;;;23.30;14.68;;;26.70;81.50;;;;;;6168005;28;83169;-65
2022/08/22 12:06:14;;;;;;;26.02;16.02;;;26.60;80.70;;;;;;6174662;28;82743;-63
2022/08/22 12:09:15;;;;;;;29.15;15.10;;;26.60;80.10;;;;;;6168682;28;83632;-63
2022/08/22 12:12:19;;;;;;;23.77;14.82;;;26.50;80.80;;;;;;6132133;28;88732;-65
2022/08/22 12:15:20;;;;;;;27.23;15.85;;;26.60;79.70;;;;;;6138711;28;84490;-53
2022/08/22 12:18:20;;;;;;;29.67;16.33;;;26.50;79.30;;;;;;6169599;28;83871;-57
2022/08/22 12:21:21;;;;;;;29.05;15.75;;;26.50;79.70;;;;;;6162421;28;83529;-58
2022/08/22 12:24:21;;;;;;;27.77;16.05;;;26.40;80.40;;;;;;6141823;28;85030;-59
2022/08/22 12:27:22;;;;;;;28.92;16.00;;;26.40;80.70;;;;;;6162803;28;87640;-58
2022/08/22 12:30:22;;;;;;;25.02;15.25;;;26.50;81.10;;;;;;6167929;28;83443;-59
2022/08/22 12:33:23;;;;;;;22.63;14.02;;;26.50;80.50;;;;;;6171405;28;83681;-59
2022/08/22 12:36:23;;;;;;;27.15;15.43;;;26.50;80.40;;;;;;6165879;28;83921;-58
2022/08/22 12:39:25;;;;;;;25.52;15.38;;;26.50;80.30;;;;;;6186285;28;90627;-57
2022/08/22 12:42:26;;;;;;;24.63;15.77;;;26.50;80.00;;;;;;6173508;28;85600;-56
2022/08/22 12:45:26;;;;;;;23.80;15.02;;;26.50;80.50;;;;;;6154385;28;83289;-58
2022/08/22 12:48:26;;;;;;;25.48;14.85;;;26.50;79.90;;;;;;6170185;28;83019;-56
2022/08/22 12:51:27;;;;;;;30.60;14.43;;;26.60;79.60;;;;;;6151289;28;83371;-58
2022/08/22 12:54:28;;;;;;;28.23;15.07;;;26.60;79.20;;;;;;6149037;28;86704;-58
2022/08/22 12:57:28;;;;;;;28.60;16.10;;;26.60;79.40;;;;;;6171873;28;83664;-59
2022/08/22 13:00:30;;;;;;;25.05;15.52;;;26.60;79.20;;;;;;6104320;28;90469;-58
2022/08/22 13:03:31;;;;;;;23.35;14.68;;;26.60;79.10;;;;;;6134406;28;85801;-53
2022/08/22 13:06:31;;;;;;;28.13;14.63;;;26.60;80.00;;;;;;6164109;28;83015;-52
2022/08/22 13:09:32;;;;;;;31.48;14.90;;;26.50;78.10;;;;;;6171264;28;83487;-54
2022/08/22 13:12:33;;;;;;;32.65;15.43;;;26.40;78.40;;;;;;6166608;28;87040;-56
2022/08/22 13:15:34;;;;;;;22.23;13.63;;;26.50;78.50;;;;;;6165455;28;83629;-54
2022/08/22 13:18:34;;;;;;;20.10;13.00;;;26.60;78.60;;;;;;6151168;28;83491;-54
2022/08/22 13:21:35;;;;;;;25.40;13.40;;;26.60;78.30;;;;;;6146064;28;84965;-53
2022/08/22 13:24:36;;;;;;;25.95;13.15;;;26.60;77.50;;;;;;6155957;28;86575;-57
2022/08/22 13:27:36;;;;;;;26.40;12.43;;;26.70;76.90;;;;;;6164615;28;83304;-54
2022/08/22 13:30:37;;;;;;;21.27;12.75;;;26.60;76.50;;;;;;6149128;28;83365;-55
2022/08/22 13:33:37;;;;;;;20.90;12.57;;;26.70;75.80;;;;;;6164614;28;84074;-55
2022/08/22 13:36:38;;;;;;;20.45;12.00;;;26.70;75.50;;;;;;6154996;28;85877;-56
2022/08/22 13:39:38;;;;;;;16.88;11.23;;;26.80;75.60;;;;;;6143437;28;89349;-56
2022/08/22 13:42:39;;;;;;;25.42;13.63;;;26.80;75.40;;;;;;6190158;28;84039;-55
2022/08/22 13:45:39;;;;;;;23.48;11.95;;;26.90;75.00;;;;;;6165690;28;86776;-56
2022/08/22 13:48:40;;;;;;;19.40;12.43;;;26.90;75.30;;;;;;6161132;28;82800;-64
2022/08/22 13:51:40;;;;;;;20.80;11.88;;;26.90;74.90;;;;;;6165047;28;83026;-64
2022/08/22 13:54:41;;;;;;;21.83;11.80;;;26.80;74.30;;;;;;6166301;28;86327;-63
2022/08/22 13:57:42;;;;;;;21.65;11.10;;;26.80;74.40;;;;;;6168694;28;83353;-63
2022/08/22 14:00:42;;;;;;;16.67;10.73;;;26.80;74.10;;;;;;6170656;28;83565;-62
2022/08/22 14:03:45;;;;;;;27.45;12.65;;;26.80;74.20;;;;;;6157319;28;84413;-62
2022/08/22 14:06:45;;;;;;;17.70;11.65;;;26.80;74.70;;;;;;6179930;28;83557;-56
2022/08/22 14:09:45;;;;;;;16.70;11.20;;;26.70;74.30;;;;;;6171501;28;83020;-55
2022/08/22 14:12:46;;;;;;;17.83;11.18;;;26.70;74.60;;;;;;6178232;28;83183;-56
2022/08/22 14:15:46;;;;;;;19.58;11.77;;;26.70;75.00;;;;;;6197702;28;88176;-53
2022/08/22 14:18:47;;;;;;;21.80;11.45;;;26.70;75.40;;;;;;6195985;28;83487;-58
2022/08/22 14:21:48;;;;;;;20.75;11.13;;;26.70;75.90;;;;;;6191315;28;87217;-56
2022/08/22 14:24:48;;;;;;;22.45;12.20;;;26.70;75.70;;;;;;6166726;28;86666;-56
2022/08/22 14:27:51;;;;;;;19.38;11.35;;;26.60;75.20;;;;;;6180831;28;86910;-58
2022/08/22 14:30:51;;;;;;;15.57;11.13;;;26.60;75.00;;;;;;6163966;28;86428;-58
2022/08/22 14:33:52;;;;;;;17.67;11.10;;;26.50;75.50;;;;;;6175894;28;83353;-57
2022/08/22 14:36:52;;;;;;;14.95;10.75;;;26.50;76.40;;;;;;6177210;28;82850;-58
2022/08/22 14:39:53;;;;;;;19.58;12.23;;;26.50;76.10;;;;;;6180978;28;83581;-63
2022/08/22 14:42:53;;;;;;;26.30;12.70;;;26.40;76.20;;;;;;6101923;28;85977;-59
2022/08/22 14:45:54;;;;;;;19.17;12.15;;;26.50;76.60;;;;;;6187751;28;86161;-58
2022/08/22 14:48:54;;;;;;;19.35;11.00;;;26.40;76.60;;;;;;6177190;28;83768;-59
2022/08/22 14:51:55;;;;;;;26.35;11.23;;;26.40;76.50;;;;;;6186371;28;83613;-60
2022/08/22 14:54:55;;;;;;;19.38;11.43;;;26.40;76.80;;;;;;6189679;28;83593;-62
2022/08/22 14:57:56;;;;;;;21.63;11.73;;;26.40;77.10;;;;;;6180091;28;86295;-60
2022/08/22 15:00:56;;;;;;;18.00;10.93;;;26.40;77.60;;;;;;6166081;28;86466;-56
2022/08/22 15:03:57;;;;;;;28.00;10.93;;;26.40;77.90;;;;;;6167856;28;83458;-58
2022/08/22 15:06:57;;;;;;;17.67;9.45;;;26.40;78.40;;;;;;6162919;28;83213;-58
2022/08/22 15:09:58;;;;;;;22.65;10.85;;;26.40;78.40;;;;;;6167980;28;83084;-58
2022/08/22 15:12:58;;;;;;;13.57;9.57;;;26.40;78.60;;;;;;6163518;28;83445;-58
2022/08/22 15:15:59;;;;;;;23.25;11.05;;;26.40;78.80;;;;;;6160555;28;84211;-58
2022/08/22 15:18:59;;;;;;;16.85;10.70;;;26.40;79.00;;;;;;6182169;28;85264;-59
2022/08/22 15:22:00;;;;;;;19.50;10.80;;;26.40;79.30;;;;;;6182382;28;84877;-57
2022/08/22 15:25:00;;;;;;;16.55;10.15;;;26.40;79.60;;;;;;6195080;28;88466;-58
2022/08/22 15:28:01;;;;;;;15.35;10.32;;;26.40;79.70;;;;;;6197906;28;89940;-58
2022/08/22 15:31:03;;;;;;;17.65;9.77;;;26.30;80.40;;;;;;6173785;28;86540;-56
2022/08/22 15:34:03;;;;;;;14.50;9.80;;;26.40;80.70;;;;;;6175985;28;82971;-55
2022/08/22 15:37:04;;;;;;;15.05;10.43;;;26.40;81.30;;;;;;6201423;28;80378;-57
2022/08/22 15:40:05;;;;;;;22.95;11.82;;;26.40;81.50;;;;;;6196600;28;83482;-56
2022/08/22 15:43:06;;;;;;;16.95;10.48;;;26.40;81.90;;;;;;6193183;28;83968;-58
2022/08/22 15:46:07;;;;;;;15.23;10.35;;;26.40;81.80;;;;;;6179255;28;86125;-58
2022/08/22 15:49:07;;;;;;;16.65;10.82;;;26.40;82.60;;;;;;6167900;28;83253;-57
2022/08/22 15:52:08;;;;;;;17.02;9.82;;;26.40;82.80;;;;;;6164520;28;89095;-59
2022/08/22 15:55:08;;;;;;;17.90;11.13;;;26.30;83.30;;;;;;6177233;28;82040;-57
2022/08/22 15:58:09;;;;;;;18.05;9.90;;;26.30;83.10;;;;;;6177625;28;86123;-61